If you wish to contribute or participate in the discussions about articles you are invited to join SKYbrary as a registered user

 Actions

Clark International/Angeles Airport

From SKYbrary Wiki

RPLC
Airport
ICAO: RPLC
Summary
Name Clark International/Angeles Airport
Region Asia and Pacific
Territory Philippines PH.gif
Location Phillippines
Serving
Coordinates 15° 11' 9.00" N, 120° 33' 37.00" E
Runways
Designator Length Width Surface ROPS
02L/20R 3200 m10,498.688 ft
45 m147.638 ft
CON yes/yes
02R/20L 3200 m10,498.688 ft
60 m196.85 ft
CON yes/yes


METAR
Observation RPLC 210900Z 34008KT 4000 -TS -SHRA FEW015CB SCT020 OVC080 25/24 Q1009 RMK A2980 TS OVD W/ LGT SHRA TS N-NW
Station Clarkfield Pampanga International Airport
Date/Time 21 July 2019 09:00:00
Wind direction 340°
Wind speed 08 kts
Lowest cloud amount few clouds
Temperature 25°C
Dew point 24°C
Humidity 94%
QNH 1009 hPa
Weather condition n/a


Clark International Airport

ICAO: RPLC IATA: CRK

Description

Civil/military airport.

Climatology

Tropical Monsoon/Savanna climate (Köppen climate classification Am/Aw)

Maps

Terrain

Loading map...

Airport Layout

Loading map...


Accidents & Serious Incidents at or in vicinity of RPLC

None on SKYbrary